Time;durP1;ratioP1;P1;durP2;ratioP2;P2;SDS_P1;SDS_P2;PMS_P1;PMS_P2;Temp;Humidity;BMP_temperature;BMP_pressure;BME280_temperature;BME280_humidity;BME280_pressure;Samples;Min_cycle;Max_cycle;Signal;HPM_P1;HPM_P2
2022/06/17 00:01:13;;;;;;;;;;;25.90;82.50;;;;;;5094987;28;19924;-81
2022/06/17 00:03:40;;;;;;;;;;;25.90;82.50;;;;;;5076917;28;19920;-81
2022/06/17 00:06:10;;;;;;;;;;;25.80;82.40;;;;;;5076998;28;20720;-81
2022/06/17 00:08:42;;;;;;;;;;;25.70;82.30;;;;;;5059940;28;19924;-81
2022/06/17 00:11:14;;;;;;;;;;;25.70;82.30;;;;;;5076946;28;19930;-81
2022/06/17 00:13:41;;;;;;;;;;;25.60;82.60;;;;;;5059661;28;19920;-81
2022/06/17 00:16:12;;;;;;;;;;;25.60;83.00;;;;;;5076668;28;19920;-81
2022/06/17 00:18:41;;;;;;;;;;;25.60;83.20;;;;;;5059645;28;20017;-81
2022/06/17 00:21:16;;;;;;;;;;;25.50;83.20;;;;;;5060114;28;20419;-81
2022/06/17 00:23:43;;;;;;;;;;;25.60;83.30;;;;;;5076457;28;19920;-81
2022/06/17 00:26:10;;;;;;;;;;;25.60;83.10;;;;;;5059800;28;20388;-81
2022/06/17 00:28:38;;;;;;;;;;;25.50;82.90;;;;;;5074834;28;20382;-81
2022/06/17 00:31:05;;;;;;;;;;;25.50;82.40;;;;;;5059314;28;19920;-80
2022/06/17 00:33:32;;;;;;;;;;;25.60;81.80;;;;;;5093118;28;19924;-81
2022/06/17 00:36:00;;;;;;;;;;;25.60;81.20;;;;;;5059210;28;19924;-81
2022/06/17 00:38:32;;;;;;;;;;;25.60;80.70;;;;;;5042814;28;19924;-81
2022/06/17 00:41:06;;;;;;;;;;;25.60;80.00;;;;;;5059177;28;19926;-82
2022/06/17 00:43:34;;;;;;;;;;;25.60;78.90;;;;;;5059445;28;20007;-81
2022/06/17 00:46:05;;;;;;;;;;;25.60;78.10;;;;;;5094259;28;19930;-81
2022/06/17 00:48:36;;;;;;;;;;;25.60;77.60;;;;;;5059878;28;20378;-81
2022/06/17 00:51:14;;;;;;;;;;;25.60;77.00;;;;;;5076087;28;19924;-81
2022/06/17 00:53:53;;;;;;;;;;;25.60;76.50;;;;;;5052456;28;19928;-81
2022/06/17 00:56:23;;;;;;;;;;;25.60;76.30;;;;;;5076018;28;19920;-81
2022/06/17 00:58:56;;;;;;;;;;;25.70;76.70;;;;;;5075604;28;20373;-81
2022/06/17 01:01:25;;;;;;;;;;;25.70;77.20;;;;;;5091139;28;20011;-81
2022/06/17 01:03:54;;;;;;;;;;;25.70;77.60;;;;;;5075806;28;19924;-81
2022/06/17 01:06:25;;;;;;;;;;;25.70;77.70;;;;;;5059058;28;20385;-81
2022/06/17 01:11:51;;;;;;;;;;;25.70;78.10;;;;;;5091939;28;19966;-81
2022/06/17 01:14:19;;;;;;;;;;;25.60;78.10;;;;;;5074744;28;19924;-81
2022/06/17 01:16:47;;;;;;;;;;;25.60;77.80;;;;;;5058037;28;19920;-81
2022/06/17 01:19:28;;;;;;;;;;;25.60;77.60;;;;;;5093283;28;19924;-81
2022/06/17 01:22:13;;;;;;;;;;;25.50;77.50;;;;;;5075453;28;19959;-82
2022/06/17 01:24:41;;;;;;;;;;;25.50;77.80;;;;;;5061112;28;19926;-82
2022/06/17 01:27:08;;;;;;;;;;;25.50;78.20;;;;;;5062444;28;20336;-83
2022/06/17 01:29:36;;;;;;;;;;;25.50;78.30;;;;;;5079008;28;20010;-82
2022/06/17 01:32:03;;;;;;;;;;;25.50;78.60;;;;;;5095700;28;19976;-82
2022/06/17 01:34:31;;;;;;;;;;;25.50;79.00;;;;;;5096935;28;19927;-82
2022/06/17 01:36:59;;;;;;;;;;;25.40;79.20;;;;;;5094864;28;19924;-83
2022/06/17 01:39:29;;;;;;;;;;;25.40;79.60;;;;;;5078711;28;19923;-82
2022/06/17 01:41:56;;;;;;;;;;;25.40;80.00;;;;;;5095955;28;19930;-83
2022/06/17 01:44:25;;;;;;;;;;;25.40;80.60;;;;;;5078758;28;19919;-82
2022/06/17 01:46:55;;;;;;;;;;;25.40;80.90;;;;;;5094845;28;19920;-81
2022/06/17 01:49:32;;;;;;;;;;;25.30;80.70;;;;;;5078466;28;20355;-83
2022/06/17 01:52:02;;;;;;;;;;;25.30;80.80;;;;;;5078090;28;19928;-82
2022/06/17 01:54:34;;;;;;;;;;;25.30;80.70;;;;;;5095095;28;20373;-82
2022/06/17 01:57:03;;;;;;;;;;;25.20;80.70;;;;;;5078608;28;20402;-80
2022/06/17 01:59:40;;;;;;;;;;;25.20;80.90;;;;;;5113123;28;20010;-82
2022/06/17 02:02:08;;;;;;;;;;;25.10;81.10;;;;;;5077941;28;20000;-82
2022/06/17 02:04:41;;;;;;;;;;;25.10;81.30;;;;;;5078110;28;19924;-82
2022/06/17 02:07:14;;;;;;;;;;;25.00;81.60;;;;;;5077311;28;19930;-82
2022/06/17 02:09:42;;;;;;;;;;;25.00;81.60;;;;;;5094703;28;20270;-81
2022/06/17 02:12:12;;;;;;;;;;;24.90;81.10;;;;;;5061575;28;19972;-82
2022/06/17 02:14:43;;;;;;;;;;;24.80;80.80;;;;;;5094362;28;19958;-81
2022/06/17 02:17:35;;;;;;;;;;;24.80;81.30;;;;;;5077190;28;20392;-81
2022/06/17 02:20:21;;;;;;;;;;;24.70;81.50;;;;;;5094667;28;19986;-81
2022/06/17 02:22:49;;;;;;;;;;;24.70;81.50;;;;;;5077320;28;19919;-81
2022/06/17 02:25:22;;;;;;;;;;;24.60;81.20;;;;;;5094635;28;19919;-82
2022/06/17 02:28:02;;;;;;;;;;;24.60;81.30;;;;;;5077939;28;19977;-82
2022/06/17 02:30:30;;;;;;;;;;;24.50;81.30;;;;;;5077754;28;19919;-82
2022/06/17 02:32:58;;;;;;;;;;;24.50;81.30;;;;;;5094374;28;20389;-82
2022/06/17 02:35:32;;;;;;;;;;;24.50;81.60;;;;;;5077236;28;19923;-81
2022/06/17 02:38:00;;;;;;;;;;;24.40;81.70;;;;;;5111743;28;19997;-81
2022/06/17 02:40:30;;;;;;;;;;;24.50;82.00;;;;;;5094359;28;19920;-81
2022/06/17 02:42:59;;;;;;;;;;;24.40;82.10;;;;;;5110954;28;20375;-81
2022/06/17 02:45:29;;;;;;;;;;;24.40;82.30;;;;;;5094250;28;19919;-81
2022/06/17 02:47:59;;;;;;;;;;;24.30;82.90;;;;;;5077209;28;20457;-81
2022/06/17 02:50:28;;;;;;;;;;;24.20;83.60;;;;;;5093988;28;19924;-81
2022/06/17 02:52:56;;;;;;;;;;;24.00;84.00;;;;;;5092216;28;19920;-81
2022/06/17 02:55:23;;;;;;;;;;;23.90;84.30;;;;;;5092845;28;19926;-81
2022/06/17 02:57:52;;;;;;;;;;;23.70;85.40;;;;;;5077224;28;20434;-81
2022/06/17 03:00:21;;;;;;;;;;;23.60;86.40;;;;;;5110047;28;19955;-81
2022/06/17 03:02:57;;;;;;;;;;;23.40;87.40;;;;;;5072698;28;19927;-81
2022/06/17 03:05:31;;;;;;;;;;;23.40;87.80;;;;;;5056133;28;20404;-81
2022/06/17 03:07:59;;;;;;;;;;;23.30;88.50;;;;;;5073067;28;19977;-82
2022/06/17 03:10:40;;;;;;;;;;;23.20;89.40;;;;;;5056620;28;20656;-82
2022/06/17 03:13:18;;;;;;;;;;;23.10;89.90;;;;;;5055797;28;19934;-81
2022/06/17 03:15:48;;;;;;;;;;;23.10;90.10;;;;;;5052644;28;19982;-82
2022/06/17 03:18:16;;;;;;;;;;;22.80;89.30;;;;;;5061256;28;19924;-82
2022/06/17 03:20:46;;;;;;;;;;;22.80;89.20;;;;;;5068438;28;20297;-81
2022/06/17 03:23:17;;;;;;;;;;;22.70;89.50;;;;;;5056117;28;20031;-82
2022/06/17 03:26:06;;;;;;;;;;;22.50;90.00;;;;;;5056447;28;19919;-81
2022/06/17 03:28:37;;;;;;;;;;;22.50;90.20;;;;;;5057139;28;19974;-81
2022/06/17 03:31:07;;;;;;;;;;;22.50;90.30;;;;;;5056711;28;19947;-82
2022/06/17 03:34:03;;;;;;;;;;;22.40;90.30;;;;;;5056274;28;20026;-82
2022/06/17 03:36:51;;;;;;;;;;;22.30;90.40;;;;;;5053344;28;19927;-82
2022/06/17 03:39:24;;;;;;;;;;;22.20;90.60;;;;;;5056067;28;19924;-82
2022/06/17 03:41:57;;;;;;;;;;;22.40;90.40;;;;;;5072864;28;20595;-82
2022/06/17 03:44:28;;;;;;;;;;;22.50;90.30;;;;;;5073985;28;19928;-81
2022/06/17 03:47:04;;;;;;;;;;;22.60;90.20;;;;;;5071797;28;19993;-81
2022/06/17 03:49:58;;;;;;;;;;;22.60;90.50;;;;;;5089505;28;19924;-81
2022/06/17 03:52:37;;;;;;;;;;;22.60;90.20;;;;;;5054340;28;19924;-82
2022/06/17 03:55:13;;;;;;;;;;;22.40;90.30;;;;;;5072245;28;19928;-82
2022/06/17 03:57:42;;;;;;;;;;;22.50;90.10;;;;;;5072111;28;19924;-81
2022/06/17 04:00:15;;;;;;;;;;;22.60;89.40;;;;;;5055797;28;19966;-82
2022/06/17 04:02:47;;;;;;;;;;;22.70;88.80;;;;;;5090709;28;19955;-82
2022/06/17 04:05:15;;;;;;;;;;;22.90;88.20;;;;;;5093111;28;19926;-82
2022/06/17 04:07:43;;;;;;;;;;;23.10;87.90;;;;;;5109836;28;19924;-82
2022/06/17 04:10:15;;;;;;;;;;;23.20;87.50;;;;;;5092615;28;19977;-82
2022/06/17 04:12:49;;;;;;;;;;;23.30;87.40;;;;;;5059938;28;20381;-82
2022/06/17 04:15:31;;;;;;;;;;;23.50;87.30;;;;;;5092374;28;19946;-81
2022/06/17 04:17:59;;;;;;;;;;;23.60;86.30;;;;;;5075914;28;19931;-82
2022/06/17 04:20:46;;;;;;;;;;;23.90;85.90;;;;;;5109499;28;19919;-82
2022/06/17 04:23:24;;;;;;;;;;;23.90;84.70;;;;;;5092794;28;19930;-82
2022/06/17 04:26:32;;;;;;;;;;;23.90;83.60;;;;;;5048189;28;19928;-82
2022/06/17 04:29:04;;;;;;;;;;;24.10;83.10;;;;;;5048027;28;20047;-82
2022/06/17 04:31:34;;;;;;;;;;;24.30;82.20;;;;;;5048447;28;19938;-82
2022/06/17 04:34:14;;;;;;;;;;;24.60;80.70;;;;;;5093223;28;19926;-82
2022/06/17 04:36:49;;;;;;;;;;;24.80;80.30;;;;;;5094665;28;19924;-82
2022/06/17 04:39:28;;;;;;;;;;;25.00;79.60;;;;;;5095983;28;19930;-81
2022/06/17 04:42:16;;;;;;;;;;;25.10;79.10;;;;;;5065125;28;19923;-82
2022/06/17 04:44:44;;;;;;;;;;;25.30;78.70;;;;;;5112673;28;19955;-82
2022/06/17 04:47:14;;;;;;;;;;;25.50;78.20;;;;;;5096690;28;20010;-82
2022/06/17 04:49:53;;;;;;;;;;;25.60;78.00;;;;;;5096438;28;20266;-82
2022/06/17 04:52:27;;;;;;;;;;;25.70;77.10;;;;;;5079323;28;19924;-81
2022/06/17 04:55:04;;;;;;;;;;;25.90;76.40;;;;;;5095254;28;19965;-81
2022/06/17 04:57:38;;;;;;;;;;;25.90;76.10;;;;;;5091003;28;19923;-80
2022/06/17 05:00:19;;;;;;;;;;;25.80;75.10;;;;;;5092279;28;19923;-81
2022/06/17 05:02:49;;;;;;;;;;;25.90;74.70;;;;;;5092386;28;19931;-81
2022/06/17 05:05:43;;;;;;;;;;;25.90;74.40;;;;;;5055930;28;19920;-81
2022/06/17 05:08:14;;;;;;;;;;;25.90;74.10;;;;;;5075817;28;20027;-81
2022/06/17 05:10:47;;;;;;;;;;;26.00;74.10;;;;;;5092112;28;20374;-81
2022/06/17 05:13:22;;;;;;;;;;;26.20;74.20;;;;;;5075411;28;20374;-81
2022/06/17 05:15:50;;;;;;;;;;;26.40;74.30;;;;;;5059427;28;19928;-81
2022/06/17 05:18:18;;;;;;;;;;;26.70;74.10;;;;;;5075307;28;19924;-82
2022/06/17 05:20:48;;;;;;;;;;;26.90;74.20;;;;;;5075802;28;19923;-81
2022/06/17 05:23:16;;;;;;;;;;;27.20;73.90;;;;;;5074853;28;20009;-81
2022/06/17 05:25:47;;;;;;;;;;;27.40;72.40;;;;;;5092294;28;19920;-81
2022/06/17 05:28:17;;;;;;;;;;;27.50;72.10;;;;;;5075467;28;19931;-81
2022/06/17 05:30:53;;;;;;;;;;;27.60;71.90;;;;;;5075567;28;19927;-82
2022/06/17 05:33:23;;;;;;;;;;;27.70;71.90;;;;;;5058646;28;20061;-82
2022/06/17 05:35:50;;;;;;;;;;;27.80;71.60;;;;;;5058456;28;19930;-81
2022/06/17 05:38:18;;;;;;;;;;;27.90;71.30;;;;;;5058849;28;19928;-82
2022/06/17 05:40:46;;;;;;;;;;;28.00;70.40;;;;;;5075346;28;19924;-82
2022/06/17 05:43:13;;;;;;;;;;;28.00;70.60;;;;;;5075035;28;20251;-82
2022/06/17 05:45:42;;;;;;;;;;;28.30;70.60;;;;;;5057899;28;19924;-82
2022/06/17 05:48:19;;;;;;;;;;;28.60;70.20;;;;;;5075093;28;20011;-81
2022/06/17 05:51:09;;;;;;;;;;;28.80;68.90;;;;;;5058070;28;19931;-82
2022/06/17 05:53:55;;;;;;;;;;;29.10;68.30;;;;;;5094160;28;19927;-81
2022/06/17 05:56:28;;;;;;;;;;;29.40;67.90;;;;;;5074895;28;20530;-81
2022/06/17 05:58:56;;;;;;;;;;;29.60;67.60;;;;;;5060740;28;19934;-82
2022/06/17 06:01:23;;;;;;;;;;;29.80;68.40;;;;;;5078226;28;19924;-81
2022/06/17 06:03:51;;;;;;;;;;;30.10;67.80;;;;;;5094648;28;19924;-81
2022/06/17 06:06:19;;;;;;;;;;;30.30;67.40;;;;;;5094909;28;19919;-81
2022/06/17 06:08:54;;;;;;;;;;;30.40;67.00;;;;;;5077480;28;19924;-82
2022/06/17 06:11:21;;;;;;;;;;;30.60;66.70;;;;;;5094939;28;19929;-81
2022/06/17 06:13:49;;;;;;;;;;;30.70;66.40;;;;;;5094779;28;20385;-81
2022/06/17 06:16:16;;;;;;;;;;;30.80;65.30;;;;;;5077794;28;19928;-82
2022/06/17 06:18:50;;;;;;;;;;;30.90;65.20;;;;;;5077441;28;20380;-81
2022/06/17 06:21:20;;;;;;;;;;;30.80;63.70;;;;;;5093953;28;19986;-82
2022/06/17 06:23:49;;;;;;;;;;;30.80;64.40;;;;;;5076547;28;20376;-81
2022/06/17 06:26:23;;;;;;;;;;;30.90;64.50;;;;;;5112919;28;20373;-81
2022/06/17 06:29:10;;;;;;;;;;;31.10;64.70;;;;;;5094953;28;19926;-81
2022/06/17 06:31:39;;;;;;;;;;;31.10;64.20;;;;;;5077163;28;20334;-81
2022/06/17 06:34:21;;;;;;;;;;;31.30;64.20;;;;;;5095995;28;19924;-81
2022/06/17 06:36:49;;;;;;;;;;;31.50;64.70;;;;;;5060085;28;19970;-81
2022/06/17 06:39:16;;;;;;;;;;;31.60;63.20;;;;;;5094804;28;19931;-80
2022/06/17 06:41:46;;;;;;;;;;;31.70;62.60;;;;;;5095036;28;19926;-81
2022/06/17 06:44:13;;;;;;;;;;;31.80;62.60;;;;;;5094740;28;19924;-81
2022/06/17 06:46:59;;;;;;;;;;;31.90;62.10;;;;;;5096313;28;19919;-81
2022/06/17 06:49:51;;;;;;;;;;;32.10;61.90;;;;;;5077686;28;20450;-81
2022/06/17 06:52:23;;;;;;;;;;;32.10;62.40;;;;;;5073080;28;19924;-81
2022/06/17 06:54:52;;;;;;;;;;;32.20;62.60;;;;;;5072865;28;19923;-81
2022/06/17 06:57:19;;;;;;;;;;;32.30;63.20;;;;;;5072659;28;20370;-81
2022/06/17 06:59:59;;;;;;;;;;;32.50;62.90;;;;;;5056723;28;19969;-82
2022/06/17 07:02:29;;;;;;;;;;;32.60;61.60;;;;;;5090534;28;20027;-82
2022/06/17 07:04:56;;;;;;;;;;;32.70;61.30;;;;;;5091191;28;19920;-82
2022/06/17 07:07:23;;;;;;;;;;;32.80;61.00;;;;;;5055929;28;19924;-81
2022/06/17 07:09:51;;;;;;;;;;;32.90;62.00;;;;;;5056334;28;19924;-81
2022/06/17 07:12:18;;;;;;;;;;;32.80;61.00;;;;;;5056450;28;19928;-82
2022/06/17 07:14:46;;;;;;;;;;;32.60;61.20;;;;;;5069677;28;19926;-81
2022/06/17 07:17:14;;;;;;;;;;;32.70;61.80;;;;;;5052958;28;20378;-81
2022/06/17 07:19:41;;;;;;;;;;;32.80;61.40;;;;;;5052900;28;19928;-81
2022/06/17 07:22:09;;;;;;;;;;;32.80;60.50;;;;;;5053260;28;19920;-82
2022/06/17 07:24:36;;;;;;;;;;;32.70;60.20;;;;;;5070598;28;19962;-82
2022/06/17 07:27:04;;;;;;;;;;;32.70;60.70;;;;;;5036540;28;19978;-81
2022/06/17 07:29:31;;;;;;;;;;;32.80;61.30;;;;;;5036954;28;19928;-82
2022/06/17 07:32:00;;;;;;;;;;;32.90;61.60;;;;;;5052834;28;19935;-81
2022/06/17 07:34:27;;;;;;;;;;;33.10;61.80;;;;;;5036394;28;19930;-81
2022/06/17 07:40:00;;;;;;;;;;;33.40;60.20;;;;;;5052942;28;19928;-82
2022/06/17 07:42:37;;;;;;;;;;;33.40;59.50;;;;;;5052755;28;19920;-82
2022/06/17 07:45:09;;;;;;;;;;;33.40;59.20;;;;;;5053318;28;19924;-82
2022/06/17 07:47:37;;;;;;;;;;;33.40;59.70;;;;;;5053896;28;20372;-82
2022/06/17 07:50:05;;;;;;;;;;;33.40;59.80;;;;;;5090883;28;19982;-81
2022/06/17 07:52:32;;;;;;;;;;;33.40;60.40;;;;;;5073096;28;19954;-81
2022/06/17 07:55:00;;;;;;;;;;;33.50;59.80;;;;;;5052116;28;20017;-81
2022/06/17 07:57:28;;;;;;;;;;;33.70;59.90;;;;;;5070551;28;19967;-81
2022/06/17 07:59:55;;;;;;;;;;;33.80;59.80;;;;;;5036040;28;19974;-82
2022/06/17 08:02:23;;;;;;;;;;;33.80;59.50;;;;;;5051903;28;19920;-82
2022/06/17 08:04:50;;;;;;;;;;;33.90;59.10;;;;;;5052171;28;19920;-82
2022/06/17 08:07:18;;;;;;;;;;;34.10;59.50;;;;;;5036566;28;19920;-82
2022/06/17 08:09:45;;;;;;;;;;;34.10;59.90;;;;;;5072281;28;19924;-81
2022/06/17 08:12:13;;;;;;;;;;;34.30;59.80;;;;;;5056622;28;19934;-82
2022/06/17 08:14:46;;;;;;;;;;;34.30;59.80;;;;;;5088925;28;20349;-82
2022/06/17 08:17:16;;;;;;;;;;;34.40;59.40;;;;;;5076524;28;20401;-81
2022/06/17 08:19:48;;;;;;;;;;;34.50;59.40;;;;;;5093936;28;19920;-82
2022/06/17 08:22:16;;;;;;;;;;;34.50;58.80;;;;;;5059217;28;19971;-81
2022/06/17 08:24:44;;;;;;;;;;;34.40;58.90;;;;;;5076278;28;20018;-81
2022/06/17 08:27:14;;;;;;;;;;;34.30;59.50;;;;;;5059431;28;19967;-82
2022/06/17 08:29:41;;;;;;;;;;;34.30;59.40;;;;;;5059396;28;19920;-81
2022/06/17 08:35:03;;;;;;;;;;;34.30;59.20;;;;;;5109931;28;19939;-81
2022/06/17 08:37:31;;;;;;;;;;;34.30;59.20;;;;;;5109432;28;19925;-81
2022/06/17 08:39:59;;;;;;;;;;;34.40;59.80;;;;;;5093874;28;20328;-81
2022/06/17 08:42:26;;;;;;;;;;;34.50;59.70;;;;;;5095959;28;19928;-82
2022/06/17 08:45:14;;;;;;;;;;;34.50;60.00;;;;;;5112334;28;20301;-81
2022/06/17 08:47:55;;;;;;;;;;;34.60;59.30;;;;;;5096430;28;19973;-81
2022/06/17 08:50:22;;;;;;;;;;;34.40;58.10;;;;;;5114408;28;20687;-81
2022/06/17 08:52:58;;;;;;;;;;;34.40;57.80;;;;;;5095567;28;19924;-80
2022/06/17 08:55:28;;;;;;;;;;;34.40;58.10;;;;;;5096326;28;19924;-82
2022/06/17 08:58:05;;;;;;;;;;;34.40;58.40;;;;;;5114719;28;19930;-81
2022/06/17 09:00:39;;;;;;;;;;;34.50;58.30;;;;;;5098847;28;20389;-81
2022/06/17 09:03:19;;;;;;;;;;;34.50;58.40;;;;;;5096005;28;20294;-81
2022/06/17 09:05:59;;;;;;;;;;;34.50;58.80;;;;;;5079386;28;19931;-82
2022/06/17 09:08:36;;;;;;;;;;;34.50;58.50;;;;;;5096047;28;19927;-82
2022/06/17 09:11:30;;;;;;;;;;;34.60;59.00;;;;;;5114091;28;20344;-81
2022/06/17 09:13:57;;;;;;;;;;;34.70;58.20;;;;;;5072362;28;20319;-80
2022/06/17 09:16:38;;;;;;;;;;;34.80;57.80;;;;;;5079736;28;19973;-80
2022/06/17 09:19:06;;;;;;;;;;;34.80;60.00;;;;;;5113994;28;19919;-80
2022/06/17 09:21:41;;;;;;;;;;;34.30;62.90;;;;;;5094169;28;20419;-82
2022/06/17 09:24:10;;;;;;;;;;;34.00;63.70;;;;;;5095036;28;20022;-83
2022/06/17 09:26:52;;;;;;;;;;;33.90;63.60;;;;;;5078572;28;19923;-82
2022/06/17 09:29:25;;;;;;;;;;;33.80;63.70;;;;;;5095815;28;19923;-80
2022/06/17 09:31:58;;;;;;;;;;;33.90;62.90;;;;;;5092845;28;19943;-80
2022/06/17 09:34:32;;;;;;;;;;;34.00;62.50;;;;;;5058331;28;19924;-80
2022/06/17 09:37:07;;;;;;;;;;;34.00;63.30;;;;;;5093211;28;19923;-80
2022/06/17 09:39:41;;;;;;;;;;;34.10;62.80;;;;;;5091373;28;19930;-80
2022/06/17 09:42:18;;;;;;;;;;;34.10;63.40;;;;;;5092152;28;20408;-74
2022/06/17 09:45:05;;;;;;;;;;;34.00;62.50;;;;;;5091110;28;19974;-73
2022/06/17 09:47:36;;;;;;;;;;;34.20;62.80;;;;;;5058045;28;19973;-74
2022/06/17 09:50:09;;;;;;;;;;;34.20;61.90;;;;;;5090329;28;19928;-76
2022/06/17 09:52:39;;;;;;;;;;;33.90;60.90;;;;;;5082948;28;19924;-74
2022/06/17 09:55:22;;;;;;;;;;;33.60;61.50;;;;;;5108649;28;19927;-73
2022/06/17 09:57:53;;;;;;;;;;;33.20;61.90;;;;;;5074202;28;19986;-72
2022/06/17 10:00:23;;;;;;;;;;;33.10;62.10;;;;;;5092608;28;20363;-73
2022/06/17 10:02:50;;;;;;;;;;;33.30;62.60;;;;;;5092431;28;20014;-73
2022/06/17 10:05:24;;;;;;;;;;;33.30;62.20;;;;;;5091402;28;19924;-74
2022/06/17 10:07:57;;;;;;;;;;;33.10;61.70;;;;;;5091315;28;19925;-74
2022/06/17 10:10:24;;;;;;;;;;;32.90;61.80;;;;;;5092104;28;19963;-73
2022/06/17 10:12:58;;;;;;;;;;;32.70;62.30;;;;;;5074405;28;19927;-73
2022/06/17 10:18:37;;;;;;;;;;;32.80;62.20;;;;;;5090763;28;19924;-73
2022/06/17 10:21:21;;;;;;;;;;;32.90;62.70;;;;;;5074138;28;19931;-72
2022/06/17 10:23:50;;;;;;;;;;;33.00;62.30;;;;;;5073370;28;19924;-73
2022/06/17 10:26:18;;;;;;;;;;;33.10;61.80;;;;;;5058626;28;19926;-74
2022/06/17 10:28:46;;;;;;;;;;;33.20;61.70;;;;;;5070896;28;20408;-74
2022/06/17 10:31:14;;;;;;;;;;;33.20;61.70;;;;;;5090331;28;19920;-74
2022/06/17 10:33:42;;;;;;;;;;;33.20;61.90;;;;;;5073768;28;19927;-74
2022/06/17 10:36:12;;;;;;;;;;;32.90;62.80;;;;;;5072900;28;19924;-74
2022/06/17 10:38:43;;;;;;;;;;;32.70;62.80;;;;;;5089811;28;19946;-73
2022/06/17 10:41:11;;;;;;;;;;;32.50;63.00;;;;;;5056871;28;20411;-73
2022/06/17 10:43:41;;;;;;;;;;;32.50;63.80;;;;;;5073540;28;20038;-75
2022/06/17 10:46:13;;;;;;;;;;;32.50;63.50;;;;;;5091749;28;19924;-73
2022/06/17 10:48:43;;;;;;;;;;;32.30;62.60;;;;;;5073641;28;19920;-73
2022/06/17 10:51:11;;;;;;;;;;;32.30;62.90;;;;;;5091789;28;19927;-73
2022/06/17 10:53:41;;;;;;;;;;;32.20;62.50;;;;;;5073347;28;20384;-73
2022/06/17 10:56:12;;;;;;;;;;;32.30;62.50;;;;;;5073028;28;19965;-73
2022/06/17 10:58:53;;;;;;;;;;;32.50;62.60;;;;;;5091348;28;19927;-73
2022/06/17 11:01:20;;;;;;;;;;;32.50;62.40;;;;;;5072206;28;19928;-74
2022/06/17 11:03:50;;;;;;;;;;;32.60;62.60;;;;;;5090628;28;20057;-74
2022/06/17 11:06:22;;;;;;;;;;;32.70;62.20;;;;;;5072529;28;19924;-75
2022/06/17 11:08:50;;;;;;;;;;;32.70;62.10;;;;;;5072272;28;19923;-75
2022/06/17 11:14:05;;;;;;;;;;;32.40;62.20;;;;;;5072383;28;19923;-73
2022/06/17 11:16:36;;;;;;;;;;;32.20;63.00;;;;;;5072150;28;19924;-73
2022/06/17 11:19:06;;;;;;;;;;;32.20;62.90;;;;;;5072333;28;19935;-74
2022/06/17 11:21:41;;;;;;;;;;;32.30;63.10;;;;;;5070879;28;19920;-73
2022/06/17 11:24:17;;;;;;;;;;;32.40;63.10;;;;;;5091250;28;19923;-75
2022/06/17 11:26:58;;;;;;;;;;;32.50;62.90;;;;;;5109178;28;19931;-74
2022/06/17 11:29:34;;;;;;;;;;;32.40;62.60;;;;;;5092114;28;19986;-73
2022/06/17 11:32:12;;;;;;;;;;;32.50;62.70;;;;;;5110161;28;19924;-75
2022/06/17 11:34:46;;;;;;;;;;;32.50;62.40;;;;;;5091454;28;20339;-75
2022/06/17 11:37:18;;;;;;;;;;;32.50;62.40;;;;;;5091756;28;19923;-73
2022/06/17 11:39:46;;;;;;;;;;;32.30;61.90;;;;;;5091906;28;19958;-74
2022/06/17 11:42:24;;;;;;;;;;;32.40;62.20;;;;;;5109156;28;19920;-74
2022/06/17 11:45:03;;;;;;;;;;;32.50;62.20;;;;;;5091534;28;19961;-74
2022/06/17 11:47:31;;;;;;;;;;;32.50;62.30;;;;;;5110308;28;19923;-74
2022/06/17 11:50:00;;;;;;;;;;;32.40;62.20;;;;;;5075255;28;19923;-74
2022/06/17 11:52:30;;;;;;;;;;;32.30;61.90;;;;;;5092167;28;20376;-73
2022/06/17 11:54:58;;;;;;;;;;;32.30;61.90;;;;;;5091943;28;19923;-74
2022/06/17 11:57:29;;;;;;;;;;;32.20;62.10;;;;;;5075591;28;20658;-74
2022/06/17 11:59:58;;;;;;;;;;;32.20;61.90;;;;;;5110045;28;19977;-74
2022/06/17 12:02:26;;;;;;;;;;;32.10;61.70;;;;;;5091905;28;19980;-75
2022/06/17 12:04:56;;;;;;;;;;;32.00;61.80;;;;;;5091980;28;19934;-74
2022/06/17 12:07:42;;;;;;;;;;;32.00;61.50;;;;;;5091620;28;19997;-73
2022/06/17 12:10:28;;;;;;;;;;;31.90;61.00;;;;;;5075558;28;19927;-74
2022/06/17 12:12:58;;;;;;;;;;;31.80;61.20;;;;;;5108441;28;19926;-73
2022/06/17 12:15:28;;;;;;;;;;;31.80;61.20;;;;;;5092371;28;19919;-73
2022/06/17 12:17:57;;;;;;;;;;;31.80;61.00;;;;;;5109536;28;19924;-74
2022/06/17 12:20:38;;;;;;;;;;;31.80;60.90;;;;;;5092276;28;20327;-72
2022/06/17 12:23:17;;;;;;;;;;;31.70;60.80;;;;;;5075289;28;19919;-73
2022/06/17 12:25:45;;;;;;;;;;;31.60;61.00;;;;;;5109491;28;19924;-73
2022/06/17 12:28:19;;;;;;;;;;;31.60;61.00;;;;;;5092309;28;19977;-73
2022/06/17 12:30:49;;;;;;;;;;;31.60;61.30;;;;;;5091047;28;20019;-73
2022/06/17 12:33:28;;;;;;;;;;;31.60;61.10;;;;;;5110387;28;19919;-72
2022/06/17 12:36:02;;;;;;;;;;;31.60;61.20;;;;;;5092087;28;20419;-73
2022/06/17 12:38:49;;;;;;;;;;;31.60;61.00;;;;;;5092402;28;20003;-72
2022/06/17 12:41:35;;;;;;;;;;;31.60;60.40;;;;;;5102052;28;19919;-73
2022/06/17 12:44:23;;;;;;;;;;;31.70;60.40;;;;;;5109360;28;19927;-72
2022/06/17 12:47:12;;;;;;;;;;;31.80;60.10;;;;;;5109307;28;19942;-73
2022/06/17 12:55:42;;;;;;;;;;;31.90;60.60;;;;;;5103071;28;19920;-73
2022/06/17 12:58:21;;;;;;;;;;;31.90;62.00;;;;;;5112415;28;19927;-74
2022/06/17 13:00:51;;;;;;;;;;;32.00;60.60;;;;;;5075501;28;20336;-72
2022/06/17 13:03:20;;;;;;;;;;;32.00;60.90;;;;;;5092758;28;19931;-73
2022/06/17 13:05:48;;;;;;;;;;;32.00;62.00;;;;;;5077742;28;19923;-73
2022/06/17 13:08:15;;;;;;;;;;;32.10;61.20;;;;;;5113776;28;19973;-73
2022/06/17 13:10:49;;;;;;;;;;;32.10;60.40;;;;;;5092346;28;19924;-73
2022/06/17 13:13:27;;;;;;;;;;;32.10;60.80;;;;;;5096119;28;19919;-73
2022/06/17 13:15:54;;;;;;;;;;;32.20;61.90;;;;;;5106841;28;19932;-74
2022/06/17 13:18:54;;;;;;;;;;;32.10;61.30;;;;;;5094918;28;20018;-73
2022/06/17 13:21:27;;;;;;;;;;;32.10;60.80;;;;;;5065907;28;19927;-73
2022/06/17 13:24:08;;;;;;;;;;;32.10;61.90;;;;;;5098252;27;19975;-72
2022/06/17 13:26:35;;;;;;;;;;;32.00;61.40;;;;;;5095010;27;19924;-74
2022/06/17 13:29:19;;;;;;;;;;;32.00;61.00;;;;;;5075636;28;20005;-73
2022/06/17 13:31:50;;;;;;;;;;;32.00;60.50;;;;;;5091580;28;19919;-72
2022/06/17 13:34:17;;;;;;;;;;;31.90;60.70;;;;;;5072734;28;20014;-72
2022/06/17 13:36:50;;;;;;;;;;;31.80;60.60;;;;;;5074464;28;19923;-76
2022/06/17 13:39:20;;;;;;;;;;;31.70;61.10;;;;;;5093570;28;19919;-72
2022/06/17 13:42:00;;;;;;;;;;;31.70;61.90;;;;;;5090872;28;20316;-72
2022/06/17 13:45:06;;;;;;;;;;;31.60;61.10;;;;;;5073661;28;19920;-74
2022/06/17 13:47:49;;;;;;;;;;;31.60;61.40;;;;;;4995612;28;19931;-73
2022/06/17 13:50:17;;;;;;;;;;;31.80;61.90;;;;;;4994090;28;20017;-72
2022/06/17 13:52:44;;;;;;;;;;;31.80;60.80;;;;;;5058949;28;20385;-72
2022/06/17 13:55:11;;;;;;;;;;;31.90;60.80;;;;;;5057912;28;19924;-72
2022/06/17 13:57:42;;;;;;;;;;;32.00;60.80;;;;;;5092209;28;19965;-72
2022/06/17 14:00:24;;;;;;;;;;;32.00;60.90;;;;;;5092387;28;19920;-72
2022/06/17 14:02:57;;;;;;;;;;;32.00;60.80;;;;;;5092408;28;19938;-72
2022/06/17 14:05:25;;;;;;;;;;;32.00;60.80;;;;;;5092752;28;19924;-73
2022/06/17 14:07:55;;;;;;;;;;;32.00;60.70;;;;;;5091837;28;19920;-72
2022/06/17 14:10:28;;;;;;;;;;;32.00;60.40;;;;;;5090655;28;20017;-72
2022/06/17 14:12:56;;;;;;;;;;;32.00;60.40;;;;;;5090742;28;19934;-72
2022/06/17 14:15:32;;;;;;;;;;;31.90;60.80;;;;;;5091569;28;19931;-72
2022/06/17 14:18:02;;;;;;;;;;;31.90;60.60;;;;;;5091986;28;19920;-72
2022/06/17 14:20:31;;;;;;;;;;;31.80;60.50;;;;;;5056311;28;20273;-72
2022/06/17 14:23:01;;;;;;;;;;;31.80;60.60;;;;;;5073458;28;19924;-73
2022/06/17 14:25:44;;;;;;;;;;;31.80;60.80;;;;;;5073750;28;19931;-72
2022/06/17 14:28:30;;;;;;;;;;;31.80;60.80;;;;;;5079705;28;19936;-73
2022/06/17 14:31:27;;;;;;;;;;;31.80;61.30;;;;;;5091696;28;19928;-74
2022/06/17 14:33:55;;;;;;;;;;;31.90;61.50;;;;;;5060720;28;19932;-73
2022/06/17 14:36:44;;;;;;;;;;;31.90;61.30;;;;;;5073531;28;19919;-73
2022/06/17 14:39:30;;;;;;;;;;;32.00;61.20;;;;;;5057167;28;20397;-73
2022/06/17 14:42:05;;;;;;;;;;;32.10;61.00;;;;;;5073537;28;19993;-73
2022/06/17 14:44:37;;;;;;;;;;;32.10;60.80;;;;;;5074117;28;19931;-72
2022/06/17 14:47:17;;;;;;;;;;;32.10;61.00;;;;;;5056902;28;19966;-73
2022/06/17 14:49:59;;;;;;;;;;;32.10;62.10;;;;;;5057404;28;19928;-72
2022/06/17 14:52:31;;;;;;;;;;;32.10;62.90;;;;;;5056785;28;19924;-72
2022/06/17 14:55:16;;;;;;;;;;;32.10;61.40;;;;;;5056310;28;20657;-73
2022/06/17 14:57:45;;;;;;;;;;;32.10;61.40;;;;;;5073552;28;19942;-72
2022/06/17 15:00:16;;;;;;;;;;;32.00;61.50;;;;;;5057177;28;19924;-72
2022/06/17 15:02:49;;;;;;;;;;;32.10;62.30;;;;;;5072110;28;19974;-73
2022/06/17 15:05:24;;;;;;;;;;;32.00;60.60;;;;;;5091310;28;19923;-73
2022/06/17 15:07:58;;;;;;;;;;;32.00;61.00;;;;;;5073600;28;19924;-73
2022/06/17 15:10:27;;;;;;;;;;;32.00;60.20;;;;;;5073381;28;19923;-72